sensor_id;sensor_type;location;lat;lon;timestamp;P1;durP1;ratioP1;P2;durP2;ratioP2
35488;SDS011;21602;55.670;37.578;2022-08-26T00:00:51;20.73;;;11.55;;
35488;SDS011;21602;55.670;37.578;2022-08-26T00:03:18;22.98;;;10.73;;
35488;SDS011;21602;55.670;37.578;2022-08-26T00:05:44;21.95;;;11.18;;
35488;SDS011;21602;55.670;37.578;2022-08-26T00:08:12;20.50;;;9.88;;
35488;SDS011;21602;55.670;37.578;2022-08-26T00:10:40;19.65;;;10.27;;
35488;SDS011;21602;55.670;37.578;2022-08-26T00:13:07;27.47;;;10.33;;
35488;SDS011;21602;55.670;37.578;2022-08-26T00:18:00;16.92;;;10.35;;
35488;SDS011;21602;55.670;37.578;2022-08-26T00:20:27;29.17;;;9.80;;
35488;SDS011;21602;55.670;37.578;2022-08-26T00:22:55;17.80;;;10.80;;
35488;SDS011;21602;55.670;37.578;2022-08-26T00:25:21;17.38;;;10.85;;
35488;SDS011;21602;55.670;37.578;2022-08-26T00:27:47;14.45;;;9.90;;
35488;SDS011;21602;55.670;37.578;2022-08-26T00:30:15;18.05;;;9.63;;
35488;SDS011;21602;55.670;37.578;2022-08-26T00:32:44;17.95;;;9.52;;
35488;SDS011;21602;55.670;37.578;2022-08-26T00:35:10;22.02;;;10.90;;
35488;SDS011;21602;55.670;37.578;2022-08-26T00:37:37;13.32;;;9.15;;
35488;SDS011;21602;55.670;37.578;2022-08-26T00:40:06;17.23;;;9.88;;
35488;SDS011;21602;55.670;37.578;2022-08-26T00:42:36;15.57;;;9.65;;
35488;SDS011;21602;55.670;37.578;2022-08-26T00:45:02;14.20;;;10.50;;
35488;SDS011;21602;55.670;37.578;2022-08-26T00:47:30;13.57;;;10.30;;
35488;SDS011;21602;55.670;37.578;2022-08-26T00:50:03;15.82;;;9.57;;
35488;SDS011;21602;55.670;37.578;2022-08-26T00:52:32;19.52;;;10.95;;
35488;SDS011;21602;55.670;37.578;2022-08-26T00:55:06;17.83;;;9.73;;
35488;SDS011;21602;55.670;37.578;2022-08-26T00:57:37;15.13;;;10.02;;
35488;SDS011;21602;55.670;37.578;2022-08-26T01:00:09;21.92;;;9.57;;
35488;SDS011;21602;55.670;37.578;2022-08-26T01:02:39;16.00;;;9.52;;
35488;SDS011;21602;55.670;37.578;2022-08-26T01:05:05;19.65;;;10.68;;
35488;SDS011;21602;55.670;37.578;2022-08-26T01:07:34;19.70;;;10.55;;
35488;SDS011;21602;55.670;37.578;2022-08-26T01:10:00;16.50;;;9.68;;
35488;SDS011;21602;55.670;37.578;2022-08-26T01:12:30;17.58;;;9.95;;
35488;SDS011;21602;55.670;37.578;2022-08-26T01:15:00;18.73;;;10.70;;
35488;SDS011;21602;55.670;37.578;2022-08-26T01:17:29;19.52;;;10.07;;
35488;SDS011;21602;55.670;37.578;2022-08-26T01:20:00;19.90;;;11.23;;
35488;SDS011;21602;55.670;37.578;2022-08-26T01:25:27;19.00;;;9.38;;
35488;SDS011;21602;55.670;37.578;2022-08-26T01:27:56;18.52;;;10.23;;
35488;SDS011;21602;55.670;37.578;2022-08-26T01:30:25;16.10;;;9.75;;
35488;SDS011;21602;55.670;37.578;2022-08-26T01:32:53;19.73;;;9.88;;
35488;SDS011;21602;55.670;37.578;2022-08-26T01:35:21;17.30;;;10.90;;
35488;SDS011;21602;55.670;37.578;2022-08-26T01:37:47;21.02;;;11.60;;
35488;SDS011;21602;55.670;37.578;2022-08-26T01:40:20;13.18;;;9.60;;
35488;SDS011;21602;55.670;37.578;2022-08-26T01:42:50;16.80;;;10.85;;
35488;SDS011;21602;55.670;37.578;2022-08-26T01:45:21;21.20;;;11.07;;
35488;SDS011;21602;55.670;37.578;2022-08-26T01:47:51;17.15;;;10.57;;
35488;SDS011;21602;55.670;37.578;2022-08-26T01:50:20;15.10;;;9.73;;
35488;SDS011;21602;55.670;37.578;2022-08-26T01:52:49;19.42;;;9.63;;
35488;SDS011;21602;55.670;37.578;2022-08-26T01:55:16;27.02;;;10.20;;
35488;SDS011;21602;55.670;37.578;2022-08-26T01:57:44;14.60;;;10.30;;
35488;SDS011;21602;55.670;37.578;2022-08-26T02:00:12;11.88;;;9.82;;
35488;SDS011;21602;55.670;37.578;2022-08-26T02:02:48;14.98;;;10.45;;
35488;SDS011;21602;55.670;37.578;2022-08-26T02:05:38;12.65;;;10.02;;
35488;SDS011;21602;55.670;37.578;2022-08-26T02:08:04;18.40;;;9.50;;
35488;SDS011;21602;55.670;37.578;2022-08-26T02:10:30;17.08;;;9.93;;
35488;SDS011;21602;55.670;37.578;2022-08-26T02:12:56;14.32;;;10.60;;
35488;SDS011;21602;55.670;37.578;2022-08-26T02:15:22;20.42;;;10.35;;
35488;SDS011;21602;55.670;37.578;2022-08-26T02:17:47;15.88;;;10.80;;
35488;SDS011;21602;55.670;37.578;2022-08-26T02:20:16;15.60;;;10.07;;
35488;SDS011;21602;55.670;37.578;2022-08-26T02:22:43;16.48;;;9.55;;
35488;SDS011;21602;55.670;37.578;2022-08-26T02:25:15;18.33;;;10.07;;
35488;SDS011;21602;55.670;37.578;2022-08-26T02:27:48;18.35;;;11.02;;
35488;SDS011;21602;55.670;37.578;2022-08-26T02:30:18;14.15;;;10.90;;
35488;SDS011;21602;55.670;37.578;2022-08-26T02:32:49;16.33;;;9.90;;
35488;SDS011;21602;55.670;37.578;2022-08-26T02:35:16;21.00;;;11.02;;
35488;SDS011;21602;55.670;37.578;2022-08-26T02:37:44;20.65;;;10.40;;
35488;SDS011;21602;55.670;37.578;2022-08-26T02:40:11;18.77;;;10.07;;
35488;SDS011;21602;55.670;37.578;2022-08-26T02:45:04;14.63;;;9.70;;
35488;SDS011;21602;55.670;37.578;2022-08-26T02:47:31;16.10;;;10.02;;
35488;SDS011;21602;55.670;37.578;2022-08-26T02:49:57;15.05;;;10.70;;
35488;SDS011;21602;55.670;37.578;2022-08-26T02:52:23;17.27;;;10.00;;
35488;SDS011;21602;55.670;37.578;2022-08-26T02:54:49;13.25;;;9.10;;
35488;SDS011;21602;55.670;37.578;2022-08-26T02:57:16;18.75;;;10.88;;
35488;SDS011;21602;55.670;37.578;2022-08-26T02:59:41;14.07;;;10.18;;
35488;SDS011;21602;55.670;37.578;2022-08-26T03:02:07;16.23;;;9.65;;
35488;SDS011;21602;55.670;37.578;2022-08-26T03:04:35;16.20;;;10.53;;
35488;SDS011;21602;55.670;37.578;2022-08-26T03:07:02;16.98;;;9.63;;
35488;SDS011;21602;55.670;37.578;2022-08-26T03:09:28;14.80;;;9.93;;
35488;SDS011;21602;55.670;37.578;2022-08-26T03:11:54;20.85;;;9.70;;
35488;SDS011;21602;55.670;37.578;2022-08-26T03:14:20;18.30;;;10.65;;
35488;SDS011;21602;55.670;37.578;2022-08-26T03:19:16;17.55;;;10.70;;
35488;SDS011;21602;55.670;37.578;2022-08-26T03:21:41;13.85;;;9.68;;
35488;SDS011;21602;55.670;37.578;2022-08-26T03:24:09;15.55;;;9.90;;
35488;SDS011;21602;55.670;37.578;2022-08-26T03:26:35;11.90;;;10.20;;
35488;SDS011;21602;55.670;37.578;2022-08-26T03:29:01;12.88;;;9.35;;
35488;SDS011;21602;55.670;37.578;2022-08-26T03:31:53;14.00;;;9.30;;
35488;SDS011;21602;55.670;37.578;2022-08-26T03:34:19;11.48;;;8.90;;
35488;SDS011;21602;55.670;37.578;2022-08-26T03:36:45;14.98;;;10.23;;
35488;SDS011;21602;55.670;37.578;2022-08-26T03:39:11;11.75;;;9.30;;
35488;SDS011;21602;55.670;37.578;2022-08-26T03:41:38;10.32;;;9.05;;
35488;SDS011;21602;55.670;37.578;2022-08-26T03:44:05;10.55;;;9.18;;
35488;SDS011;21602;55.670;37.578;2022-08-26T03:46:33;12.15;;;9.13;;
35488;SDS011;21602;55.670;37.578;2022-08-26T03:48:59;13.98;;;9.25;;
35488;SDS011;21602;55.670;37.578;2022-08-26T03:51:27;12.40;;;9.90;;
35488;SDS011;21602;55.670;37.578;2022-08-26T03:53:53;11.25;;;8.30;;
35488;SDS011;21602;55.670;37.578;2022-08-26T03:56:19;18.35;;;10.38;;
35488;SDS011;21602;55.670;37.578;2022-08-26T03:58:45;10.05;;;8.68;;
35488;SDS011;21602;55.670;37.578;2022-08-26T04:01:11;13.88;;;9.43;;
35488;SDS011;21602;55.670;37.578;2022-08-26T04:03:38;11.05;;;9.52;;
35488;SDS011;21602;55.670;37.578;2022-08-26T04:06:22;11.65;;;9.88;;
35488;SDS011;21602;55.670;37.578;2022-08-26T04:08:49;13.55;;;10.40;;
35488;SDS011;21602;55.670;37.578;2022-08-26T04:11:16;15.40;;;10.82;;
35488;SDS011;21602;55.670;37.578;2022-08-26T04:13:44;15.45;;;9.50;;
35488;SDS011;21602;55.670;37.578;2022-08-26T04:16:11;12.57;;;9.32;;
35488;SDS011;21602;55.670;37.578;2022-08-26T04:18:37;12.30;;;9.35;;
35488;SDS011;21602;55.670;37.578;2022-08-26T04:21:04;11.73;;;9.95;;
35488;SDS011;21602;55.670;37.578;2022-08-26T04:23:30;16.70;;;9.65;;
35488;SDS011;21602;55.670;37.578;2022-08-26T04:25:56;14.75;;;9.43;;
35488;SDS011;21602;55.670;37.578;2022-08-26T04:28:22;33.70;;;14.88;;
35488;SDS011;21602;55.670;37.578;2022-08-26T04:30:48;14.10;;;9.90;;
35488;SDS011;21602;55.670;37.578;2022-08-26T04:33:14;21.85;;;12.18;;
35488;SDS011;21602;55.670;37.578;2022-08-26T04:35:40;28.35;;;11.85;;
35488;SDS011;21602;55.670;37.578;2022-08-26T04:40:34;16.60;;;9.20;;
35488;SDS011;21602;55.670;37.578;2022-08-26T04:43:00;13.77;;;9.98;;
35488;SDS011;21602;55.670;37.578;2022-08-26T04:45:25;18.58;;;9.38;;
35488;SDS011;21602;55.670;37.578;2022-08-26T04:47:52;14.77;;;9.07;;
35488;SDS011;21602;55.670;37.578;2022-08-26T04:50:21;14.45;;;9.32;;
35488;SDS011;21602;55.670;37.578;2022-08-26T04:52:49;17.27;;;9.43;;
35488;SDS011;21602;55.670;37.578;2022-08-26T04:55:14;15.48;;;9.40;;
35488;SDS011;21602;55.670;37.578;2022-08-26T04:57:40;11.40;;;8.18;;
35488;SDS011;21602;55.670;37.578;2022-08-26T05:00:07;13.15;;;8.50;;
35488;SDS011;21602;55.670;37.578;2022-08-26T05:02:36;13.30;;;8.10;;
35488;SDS011;21602;55.670;37.578;2022-08-26T05:05:02;12.52;;;9.00;;
35488;SDS011;21602;55.670;37.578;2022-08-26T05:07:29;16.10;;;8.75;;
35488;SDS011;21602;55.670;37.578;2022-08-26T05:09:55;16.08;;;9.02;;
35488;SDS011;21602;55.670;37.578;2022-08-26T05:12:21;12.52;;;7.95;;
35488;SDS011;21602;55.670;37.578;2022-08-26T05:14:47;15.40;;;9.18;;
35488;SDS011;21602;55.670;37.578;2022-08-26T05:17:13;11.98;;;8.35;;
35488;SDS011;21602;55.670;37.578;2022-08-26T05:19:39;12.65;;;8.05;;
35488;SDS011;21602;55.670;37.578;2022-08-26T05:22:04;13.18;;;8.82;;
35488;SDS011;21602;55.670;37.578;2022-08-26T05:24:30;11.70;;;8.45;;
35488;SDS011;21602;55.670;37.578;2022-08-26T05:26:56;15.48;;;8.20;;
35488;SDS011;21602;55.670;37.578;2022-08-26T05:29:22;12.45;;;8.35;;
35488;SDS011;21602;55.670;37.578;2022-08-26T05:31:51;17.52;;;8.55;;
35488;SDS011;21602;55.670;37.578;2022-08-26T05:34:17;9.38;;;7.80;;
35488;SDS011;21602;55.670;37.578;2022-08-26T05:36:44;13.75;;;8.23;;
35488;SDS011;21602;55.670;37.578;2022-08-26T05:39:10;13.45;;;8.65;;
35488;SDS011;21602;55.670;37.578;2022-08-26T05:41:37;9.82;;;7.20;;
35488;SDS011;21602;55.670;37.578;2022-08-26T05:44:05;13.02;;;8.80;;
35488;SDS011;21602;55.670;37.578;2022-08-26T05:46:34;11.18;;;8.35;;
35488;SDS011;21602;55.670;37.578;2022-08-26T05:49:01;10.75;;;8.20;;
35488;SDS011;21602;55.670;37.578;2022-08-26T05:51:28;14.07;;;8.32;;
35488;SDS011;21602;55.670;37.578;2022-08-26T05:53:54;15.85;;;8.25;;
35488;SDS011;21602;55.670;37.578;2022-08-26T05:56:20;12.85;;;7.97;;
35488;SDS011;21602;55.670;37.578;2022-08-26T05:58:50;14.38;;;8.10;;
35488;SDS011;21602;55.670;37.578;2022-08-26T06:01:17;10.63;;;7.45;;
35488;SDS011;21602;55.670;37.578;2022-08-26T06:03:46;11.98;;;7.80;;
35488;SDS011;21602;55.670;37.578;2022-08-26T06:06:15;13.98;;;8.57;;
35488;SDS011;21602;55.670;37.578;2022-08-26T06:08:43;17.30;;;7.93;;
35488;SDS011;21602;55.670;37.578;2022-08-26T06:11:10;9.05;;;7.88;;
35488;SDS011;21602;55.670;37.578;2022-08-26T06:13:39;15.80;;;7.75;;
35488;SDS011;21602;55.670;37.578;2022-08-26T06:16:06;14.15;;;7.82;;
35488;SDS011;21602;55.670;37.578;2022-08-26T06:18:35;8.52;;;7.53;;
35488;SDS011;21602;55.670;37.578;2022-08-26T06:21:38;10.88;;;7.90;;
35488;SDS011;21602;55.670;37.578;2022-08-26T06:23:58;11.98;;;7.82;;
35488;SDS011;21602;55.670;37.578;2022-08-26T06:26:48;10.20;;;6.60;;
35488;SDS011;21602;55.670;37.578;2022-08-26T06:29:17;11.38;;;6.65;;
35488;SDS011;21602;55.670;37.578;2022-08-26T06:31:44;10.15;;;6.90;;
35488;SDS011;21602;55.670;37.578;2022-08-26T06:34:10;11.43;;;7.47;;
35488;SDS011;21602;55.670;37.578;2022-08-26T06:36:36;8.70;;;6.80;;
35488;SDS011;21602;55.670;37.578;2022-08-26T06:41:31;11.75;;;7.28;;
35488;SDS011;21602;55.670;37.578;2022-08-26T06:43:58;9.23;;;6.82;;
35488;SDS011;21602;55.670;37.578;2022-08-26T06:46:24;10.25;;;6.57;;
35488;SDS011;21602;55.670;37.578;2022-08-26T06:48:51;9.00;;;5.97;;
35488;SDS011;21602;55.670;37.578;2022-08-26T06:51:19;9.52;;;6.13;;
35488;SDS011;21602;55.670;37.578;2022-08-26T06:53:48;10.35;;;6.43;;
35488;SDS011;21602;55.670;37.578;2022-08-26T06:56:16;6.35;;;5.65;;
35488;SDS011;21602;55.670;37.578;2022-08-26T06:58:45;9.23;;;7.22;;
35488;SDS011;21602;55.670;37.578;2022-08-26T07:01:15;9.32;;;6.30;;
35488;SDS011;21602;55.670;37.578;2022-08-26T07:03:42;10.20;;;6.70;;
35488;SDS011;21602;55.670;37.578;2022-08-26T07:06:08;10.90;;;6.88;;
35488;SDS011;21602;55.670;37.578;2022-08-26T07:08:35;7.88;;;7.07;;
35488;SDS011;21602;55.670;37.578;2022-08-26T07:11:05;7.32;;;5.88;;
35488;SDS011;21602;55.670;37.578;2022-08-26T07:13:32;8.60;;;5.95;;
35488;SDS011;21602;55.670;37.578;2022-08-26T07:16:02;9.32;;;5.93;;
35488;SDS011;21602;55.670;37.578;2022-08-26T07:18:29;7.68;;;6.05;;
35488;SDS011;21602;55.670;37.578;2022-08-26T07:20:56;9.93;;;6.13;;
35488;SDS011;21602;55.670;37.578;2022-08-26T07:23:22;6.93;;;6.22;;
35488;SDS011;21602;55.670;37.578;2022-08-26T07:25:48;13.82;;;6.20;;
35488;SDS011;21602;55.670;37.578;2022-08-26T07:28:13;8.73;;;5.68;;
35488;SDS011;21602;55.670;37.578;2022-08-26T07:30:39;11.30;;;6.18;;
35488;SDS011;21602;55.670;37.578;2022-08-26T07:33:05;8.05;;;6.28;;
35488;SDS011;21602;55.670;37.578;2022-08-26T07:35:31;8.50;;;6.00;;
35488;SDS011;21602;55.670;37.578;2022-08-26T07:37:57;9.55;;;5.88;;
35488;SDS011;21602;55.670;37.578;2022-08-26T07:40:23;6.47;;;5.80;;
35488;SDS011;21602;55.670;37.578;2022-08-26T07:42:48;9.80;;;5.65;;
35488;SDS011;21602;55.670;37.578;2022-08-26T07:45:14;9.63;;;5.78;;
35488;SDS011;21602;55.670;37.578;2022-08-26T07:47:41;7.10;;;6.07;;
35488;SDS011;21602;55.670;37.578;2022-08-26T07:50:07;10.45;;;6.15;;
35488;SDS011;21602;55.670;37.578;2022-08-26T07:52:33;14.75;;;5.65;;
35488;SDS011;21602;55.670;37.578;2022-08-26T07:54:59;8.27;;;5.50;;
35488;SDS011;21602;55.670;37.578;2022-08-26T07:57:27;8.00;;;6.05;;
35488;SDS011;21602;55.670;37.578;2022-08-26T07:59:53;13.27;;;6.47;;
35488;SDS011;21602;55.670;37.578;2022-08-26T08:02:20;8.70;;;5.93;;
35488;SDS011;21602;55.670;37.578;2022-08-26T08:04:46;8.85;;;5.50;;
35488;SDS011;21602;55.670;37.578;2022-08-26T08:07:11;10.35;;;6.55;;
35488;SDS011;21602;55.670;37.578;2022-08-26T08:09:37;8.48;;;6.00;;
35488;SDS011;21602;55.670;37.578;2022-08-26T08:12:03;10.45;;;5.90;;
35488;SDS011;21602;55.670;37.578;2022-08-26T08:14:30;12.87;;;5.83;;
35488;SDS011;21602;55.670;37.578;2022-08-26T08:16:55;9.65;;;6.75;;
35488;SDS011;21602;55.670;37.578;2022-08-26T08:19:22;9.95;;;6.35;;
35488;SDS011;21602;55.670;37.578;2022-08-26T08:21:48;12.13;;;8.93;;
35488;SDS011;21602;55.670;37.578;2022-08-26T08:24:14;14.93;;;6.13;;
35488;SDS011;21602;55.670;37.578;2022-08-26T08:26:40;8.40;;;6.45;;
35488;SDS011;21602;55.670;37.578;2022-08-26T08:29:06;9.48;;;6.30;;
35488;SDS011;21602;55.670;37.578;2022-08-26T08:31:33;15.20;;;7.65;;
35488;SDS011;21602;55.670;37.578;2022-08-26T08:33:59;12.87;;;7.40;;
35488;SDS011;21602;55.670;37.578;2022-08-26T08:36:25;8.18;;;6.80;;
35488;SDS011;21602;55.670;37.578;2022-08-26T08:38:52;11.60;;;6.72;;
35488;SDS011;21602;55.670;37.578;2022-08-26T08:44:09;11.00;;;6.70;;
35488;SDS011;21602;55.670;37.578;2022-08-26T08:46:40;11.68;;;6.93;;
35488;SDS011;21602;55.670;37.578;2022-08-26T08:49:07;7.15;;;6.43;;
35488;SDS011;21602;55.670;37.578;2022-08-26T08:51:51;11.35;;;6.68;;
35488;SDS011;21602;55.670;37.578;2022-08-26T08:54:18;10.00;;;6.78;;
35488;SDS011;21602;55.670;37.578;2022-08-26T08:56:49;11.13;;;5.97;;
35488;SDS011;21602;55.670;37.578;2022-08-26T09:01:51;10.57;;;6.95;;
35488;SDS011;21602;55.670;37.578;2022-08-26T09:07:30;8.10;;;6.60;;
35488;SDS011;21602;55.670;37.578;2022-08-26T09:12:38;8.18;;;7.00;;
35488;SDS011;21602;55.670;37.578;2022-08-26T09:15:05;16.55;;;7.57;;
35488;SDS011;21602;55.670;37.578;2022-08-26T09:17:49;7.15;;;5.95;;
35488;SDS011;21602;55.670;37.578;2022-08-26T09:25:49;13.05;;;6.72;;
35488;SDS011;21602;55.670;37.578;2022-08-26T09:28:20;10.18;;;7.25;;
35488;SDS011;21602;55.670;37.578;2022-08-26T09:31:48;13.90;;;7.00;;
35488;SDS011;21602;55.670;37.578;2022-08-26T09:34:01;16.60;;;7.50;;
35488;SDS011;21602;55.670;37.578;2022-08-26T09:36:48;11.38;;;6.45;;
35488;SDS011;21602;55.670;37.578;2022-08-26T09:42:03;13.90;;;6.82;;
35488;SDS011;21602;55.670;37.578;2022-08-26T09:44:33;8.93;;;6.47;;
35488;SDS011;21602;55.670;37.578;2022-08-26T09:47:18;12.05;;;7.15;;
35488;SDS011;21602;55.670;37.578;2022-08-26T09:49:55;13.27;;;7.10;;
35488;SDS011;21602;55.670;37.578;2022-08-26T09:52:31;15.00;;;8.32;;
35488;SDS011;21602;55.670;37.578;2022-08-26T09:57:27;16.52;;;7.50;;
35488;SDS011;21602;55.670;37.578;2022-08-26T09:59:54;13.75;;;7.00;;
35488;SDS011;21602;55.670;37.578;2022-08-26T10:10:14;13.63;;;6.93;;
35488;SDS011;21602;55.670;37.578;2022-08-26T10:12:47;15.90;;;7.28;;
35488;SDS011;21602;55.670;37.578;2022-08-26T10:15:18;18.38;;;7.50;;
35488;SDS011;21602;55.670;37.578;2022-08-26T10:18:14;10.50;;;7.35;;
35488;SDS011;21602;55.670;37.578;2022-08-26T10:20:49;9.52;;;6.47;;
35488;SDS011;21602;55.670;37.578;2022-08-26T10:23:21;22.00;;;7.60;;
35488;SDS011;21602;55.670;37.578;2022-08-26T10:25:51;13.23;;;6.68;;
35488;SDS011;21602;55.670;37.578;2022-08-26T10:33:51;9.30;;;5.93;;
35488;SDS011;21602;55.670;37.578;2022-08-26T10:36:17;13.02;;;7.30;;
35488;SDS011;21602;55.670;37.578;2022-08-26T10:39:05;7.50;;;6.80;;
35488;SDS011;21602;55.670;37.578;2022-08-26T10:41:36;12.23;;;6.80;;
35488;SDS011;21602;55.670;37.578;2022-08-26T10:44:06;7.82;;;6.63;;
35488;SDS011;21602;55.670;37.578;2022-08-26T10:46:55;7.75;;;6.15;;
35488;SDS011;21602;55.670;37.578;2022-08-26T10:49:25;9.00;;;6.68;;
35488;SDS011;21602;55.670;37.578;2022-08-26T10:51:59;7.03;;;6.30;;
35488;SDS011;21602;55.670;37.578;2022-08-26T11:05:41;7.70;;;5.32;;
35488;SDS011;21602;55.670;37.578;2022-08-26T11:13:16;8.35;;;5.90;;
35488;SDS011;21602;55.670;37.578;2022-08-26T11:18:11;7.20;;;5.78;;
35488;SDS011;21602;55.670;37.578;2022-08-26T11:20:57;7.22;;;5.57;;
35488;SDS011;21602;55.670;37.578;2022-08-26T11:23:35;6.47;;;5.78;;
35488;SDS011;21602;55.670;37.578;2022-08-26T11:28:43;7.25;;;6.45;;
35488;SDS011;21602;55.670;37.578;2022-08-26T11:36:08;6.53;;;5.70;;
35488;SDS011;21602;55.670;37.578;2022-08-26T11:41:12;6.05;;;5.53;;
35488;SDS011;21602;55.670;37.578;2022-08-26T11:43:47;14.77;;;6.00;;
35488;SDS011;21602;55.670;37.578;2022-08-26T11:46:22;7.80;;;5.38;;
35488;SDS011;21602;55.670;37.578;2022-08-26T11:49:01;6.20;;;5.50;;
35488;SDS011;21602;55.670;37.578;2022-08-26T11:51:30;7.63;;;5.65;;
35488;SDS011;21602;55.670;37.578;2022-08-26T11:54:09;10.27;;;5.95;;
35488;SDS011;21602;55.670;37.578;2022-08-26T11:56:37;7.80;;;5.97;;
35488;SDS011;21602;55.670;37.578;2022-08-26T12:01:35;7.15;;;6.07;;
35488;SDS011;21602;55.670;37.578;2022-08-26T12:04:04;8.10;;;6.20;;
35488;SDS011;21602;55.670;37.578;2022-08-26T12:06:33;6.40;;;5.80;;
35488;SDS011;21602;55.670;37.578;2022-08-26T12:09:07;10.38;;;5.68;;
35488;SDS011;21602;55.670;37.578;2022-08-26T12:11:36;10.55;;;6.15;;
35488;SDS011;21602;55.670;37.578;2022-08-26T12:14:14;7.78;;;5.43;;
35488;SDS011;21602;55.670;37.578;2022-08-26T12:16:48;10.95;;;5.35;;
35488;SDS011;21602;55.670;37.578;2022-08-26T12:19:22;9.60;;;5.83;;
35488;SDS011;21602;55.670;37.578;2022-08-26T12:24:31;26.35;;;5.80;;
35488;SDS011;21602;55.670;37.578;2022-08-26T12:32:39;15.05;;;5.28;;
35488;SDS011;21602;55.670;37.578;2022-08-26T12:35:12;9.27;;;5.55;;
35488;SDS011;21602;55.670;37.578;2022-08-26T12:37:49;15.30;;;5.22;;
35488;SDS011;21602;55.670;37.578;2022-08-26T12:42:55;11.25;;;5.53;;
35488;SDS011;21602;55.670;37.578;2022-08-26T12:45:25;5.93;;;5.22;;
35488;SDS011;21602;55.670;37.578;2022-08-26T12:47:53;8.23;;;5.63;;
35488;SDS011;21602;55.670;37.578;2022-08-26T12:50:22;6.75;;;5.32;;
35488;SDS011;21602;55.670;37.578;2022-08-26T12:55:37;6.38;;;5.30;;
35488;SDS011;21602;55.670;37.578;2022-08-26T13:00:48;9.00;;;5.00;;
35488;SDS011;21602;55.670;37.578;2022-08-26T13:13:46;8.82;;;5.50;;
35488;SDS011;21602;55.670;37.578;2022-08-26T13:16:15;10.52;;;5.22;;
35488;SDS011;21602;55.670;37.578;2022-08-26T13:18:43;7.43;;;5.97;;
35488;SDS011;21602;55.670;37.578;2022-08-26T13:21:13;7.13;;;5.40;;
35488;SDS011;21602;55.670;37.578;2022-08-26T13:23:42;8.50;;;6.25;;
35488;SDS011;21602;55.670;37.578;2022-08-26T13:26:07;8.50;;;6.00;;
35488;SDS011;21602;55.670;37.578;2022-08-26T13:28:33;9.20;;;5.18;;
35488;SDS011;21602;55.670;37.578;2022-08-26T13:30:59;7.65;;;5.18;;
35488;SDS011;21602;55.670;37.578;2022-08-26T13:33:25;9.50;;;5.97;;
35488;SDS011;21602;55.670;37.578;2022-08-26T13:35:52;7.72;;;5.72;;
35488;SDS011;21602;55.670;37.578;2022-08-26T13:38:19;6.45;;;5.13;;
35488;SDS011;21602;55.670;37.578;2022-08-26T13:40:44;7.13;;;5.82;;
35488;SDS011;21602;55.670;37.578;2022-08-26T13:43:12;9.48;;;5.32;;
35488;SDS011;21602;55.670;37.578;2022-08-26T13:45:38;7.72;;;5.40;;
35488;SDS011;21602;55.670;37.578;2022-08-26T13:48:04;10.35;;;6.00;;
35488;SDS011;21602;55.670;37.578;2022-08-26T13:50:31;9.25;;;5.78;;
35488;SDS011;21602;55.670;37.578;2022-08-26T13:52:58;15.80;;;6.72;;
35488;SDS011;21602;55.670;37.578;2022-08-26T13:55:24;8.65;;;5.55;;
35488;SDS011;21602;55.670;37.578;2022-08-26T13:57:51;9.63;;;6.03;;
35488;SDS011;21602;55.670;37.578;2022-08-26T14:00:16;9.23;;;5.82;;
35488;SDS011;21602;55.670;37.578;2022-08-26T14:02:42;9.73;;;6.15;;
35488;SDS011;21602;55.670;37.578;2022-08-26T14:05:08;10.05;;;5.28;;
35488;SDS011;21602;55.670;37.578;2022-08-26T14:07:34;7.55;;;5.63;;
35488;SDS011;21602;55.670;37.578;2022-08-26T14:10:01;13.07;;;5.70;;
35488;SDS011;21602;55.670;37.578;2022-08-26T14:12:26;7.47;;;5.28;;
35488;SDS011;21602;55.670;37.578;2022-08-26T14:14:53;9.38;;;5.93;;
35488;SDS011;21602;55.670;37.578;2022-08-26T14:17:20;7.82;;;6.05;;
35488;SDS011;21602;55.670;37.578;2022-08-26T14:19:47;10.60;;;6.93;;
35488;SDS011;21602;55.670;37.578;2022-08-26T14:22:15;7.07;;;5.88;;
35488;SDS011;21602;55.670;37.578;2022-08-26T14:24:42;8.15;;;5.63;;
35488;SDS011;21602;55.670;37.578;2022-08-26T14:27:09;9.63;;;6.15;;
35488;SDS011;21602;55.670;37.578;2022-08-26T14:29:36;8.27;;;5.55;;
35488;SDS011;21602;55.670;37.578;2022-08-26T14:32:03;13.60;;;6.47;;
35488;SDS011;21602;55.670;37.578;2022-08-26T14:34:35;7.55;;;5.68;;
35488;SDS011;21602;55.670;37.578;2022-08-26T14:37:00;12.43;;;5.20;;
35488;SDS011;21602;55.670;37.578;2022-08-26T14:39:26;12.20;;;5.80;;
35488;SDS011;21602;55.670;37.578;2022-08-26T14:41:53;10.18;;;6.00;;
35488;SDS011;21602;55.670;37.578;2022-08-26T14:44:20;7.45;;;6.40;;
35488;SDS011;21602;55.670;37.578;2022-08-26T14:46:49;10.75;;;7.05;;
35488;SDS011;21602;55.670;37.578;2022-08-26T14:49:17;8.18;;;5.45;;
35488;SDS011;21602;55.670;37.578;2022-08-26T14:54:10;13.15;;;4.97;;
35488;SDS011;21602;55.670;37.578;2022-08-26T14:56:43;10.68;;;7.68;;
35488;SDS011;21602;55.670;37.578;2022-08-26T14:59:17;6.78;;;5.45;;
35488;SDS011;21602;55.670;37.578;2022-08-26T15:02:04;9.73;;;6.70;;
35488;SDS011;21602;55.670;37.578;2022-08-26T15:06:57;7.47;;;6.43;;
35488;SDS011;21602;55.670;37.578;2022-08-26T15:09:24;7.35;;;5.55;;
35488;SDS011;21602;55.670;37.578;2022-08-26T15:11:51;8.37;;;5.10;;
35488;SDS011;21602;55.670;37.578;2022-08-26T15:14:17;10.05;;;5.88;;
35488;SDS011;21602;55.670;37.578;2022-08-26T15:16:44;7.28;;;5.90;;
35488;SDS011;21602;55.670;37.578;2022-08-26T15:19:14;8.98;;;5.38;;
35488;SDS011;21602;55.670;37.578;2022-08-26T15:21:40;9.50;;;5.60;;
35488;SDS011;21602;55.670;37.578;2022-08-26T15:24:07;11.95;;;5.82;;
35488;SDS011;21602;55.670;37.578;2022-08-26T15:26:33;11.43;;;5.90;;
35488;SDS011;21602;55.670;37.578;2022-08-26T15:28:59;11.00;;;6.63;;
35488;SDS011;21602;55.670;37.578;2022-08-26T15:31:27;7.93;;;5.93;;
35488;SDS011;21602;55.670;37.578;2022-08-26T15:34:13;7.63;;;5.63;;
35488;SDS011;21602;55.670;37.578;2022-08-26T15:36:38;10.35;;;5.68;;
35488;SDS011;21602;55.670;37.578;2022-08-26T15:39:07;12.63;;;5.53;;
35488;SDS011;21602;55.670;37.578;2022-08-26T15:41:34;8.70;;;5.90;;
35488;SDS011;21602;55.670;37.578;2022-08-26T15:44:00;8.68;;;6.47;;
35488;SDS011;21602;55.670;37.578;2022-08-26T15:46:27;5.90;;;5.20;;
35488;SDS011;21602;55.670;37.578;2022-08-26T15:48:53;12.60;;;5.80;;
35488;SDS011;21602;55.670;37.578;2022-08-26T15:51:24;11.57;;;6.35;;
35488;SDS011;21602;55.670;37.578;2022-08-26T15:53:52;8.65;;;6.35;;
35488;SDS011;21602;55.670;37.578;2022-08-26T15:56:22;14.40;;;6.03;;
35488;SDS011;21602;55.670;37.578;2022-08-26T15:58:52;7.38;;;5.85;;
35488;SDS011;21602;55.670;37.578;2022-08-26T16:01:19;10.43;;;6.07;;
35488;SDS011;21602;55.670;37.578;2022-08-26T16:03:48;10.57;;;5.43;;
35488;SDS011;21602;55.670;37.578;2022-08-26T16:06:16;7.38;;;5.75;;
35488;SDS011;21602;55.670;37.578;2022-08-26T16:08:45;11.43;;;5.78;;
35488;SDS011;21602;55.670;37.578;2022-08-26T16:11:11;8.15;;;5.65;;
35488;SDS011;21602;55.670;37.578;2022-08-26T16:13:38;18.48;;;6.53;;
35488;SDS011;21602;55.670;37.578;2022-08-26T16:16:04;12.98;;;6.50;;
35488;SDS011;21602;55.670;37.578;2022-08-26T16:18:30;10.60;;;6.35;;
35488;SDS011;21602;55.670;37.578;2022-08-26T16:20:56;12.15;;;6.57;;
35488;SDS011;21602;55.670;37.578;2022-08-26T16:23:22;16.90;;;6.47;;
35488;SDS011;21602;55.670;37.578;2022-08-26T16:25:49;10.60;;;6.43;;